Time;durP1;ratioP1;P1;durP2;ratioP2;P2;SDS_P1;SDS_P2;PMS_P1;PMS_P2;Temp;Humidity;BMP_temperature;BMP_pressure;BME280_temperature;BME280_humidity;BME280_pressure;Samples;Min_cycle;Max_cycle;Signal;HPM_P1;HPM_P2
2021/01/14 00:00:37;;;;;;;49.67;21.70;;;;;;;-2.18;97.83;100070.59;1831007;78;21012;-52
2021/01/14 00:03:09;;;;;;;53.17;21.60;;;;;;;-2.14;97.91;100067.11;1831079;78;21131;-52
2021/01/14 00:05:37;;;;;;;50.43;21.70;;;;;;;-2.10;97.97;100066.28;1831241;78;21567;-52
2021/01/14 00:08:05;;;;;;;53.17;21.30;;;;;;;-2.04;98.10;100077.23;1831180;78;21127;-52
2021/01/14 00:10:36;;;;;;;52.33;21.50;;;;;;;-1.96;98.37;100073.34;1831208;78;22124;-51
2021/01/14 00:13:09;;;;;;;53.50;22.03;;;;;;;-1.89;98.45;100077.75;1831051;78;21131;-51
2021/01/14 00:15:38;;;;;;;52.05;21.42;;;;;;;-1.82;98.54;100076.03;1831330;78;23620;-51
2021/01/14 00:18:06;;;;;;;62.27;23.80;;;;;;;-1.77;98.59;100079.56;1831073;78;21138;-51
2021/01/14 00:20:33;;;;;;;52.43;22.15;;;;;;;-1.73;98.67;100076.95;1831261;78;21571;-52
2021/01/14 00:23:01;;;;;;;55.50;22.00;;;;;;;-1.68;98.72;100072.16;1831235;78;21543;-52
2021/01/14 00:25:29;;;;;;;54.07;22.27;;;;;;;-1.63;98.79;100079.65;1831093;78;21064;-52
2021/01/14 00:27:56;;;;;;;53.00;21.62;;;;;;;-1.57;98.83;100079.66;1831087;78;21083;-52
2021/01/14 00:30:29;;;;;;;56.35;22.82;;;;;;;-1.51;98.92;100084.94;1831158;78;21095;-52
2021/01/14 00:32:58;;;;;;;48.13;20.27;;;;;;;-1.45;98.95;100084.95;1831160;78;21099;-53
2021/01/14 00:35:27;;;;;;;58.50;22.77;;;;;;;-1.39;98.97;100080.61;1831241;78;22245;-52
2021/01/14 00:37:55;;;;;;;49.30;21.65;;;;;;;-1.35;98.91;100071.85;1831121;78;21122;-52
2021/01/14 00:40:30;;;;;;;52.00;22.13;;;;;;;-1.31;98.87;100067.92;1763464;81;21602;-52
2021/01/14 00:43:05;;;;;;;53.68;21.90;;;;;;;-1.25;98.88;100067.04;1808858;79;21005;-53
2021/01/14 00:45:33;;;;;;;52.75;22.07;;;;;;;-1.18;98.90;100059.62;1807840;79;21187;-53
2021/01/14 00:48:02;;;;;;;49.00;21.07;;;;;;;-1.12;98.82;100053.92;1760532;81;22894;-53
2021/01/14 00:50:29;;;;;;;52.03;21.93;;;;;;;-1.06;98.76;100055.25;1807976;79;21067;-52
2021/01/14 00:52:57;;;;;;;54.50;22.07;;;;;;;-1.03;98.65;100052.61;1808129;79;21083;-52
2021/01/14 00:55:25;;;;;;;54.10;22.17;;;;;;;-1.00;98.56;100052.61;1760424;81;21122;-53
2021/01/14 00:57:53;;;;;;;49.33;22.17;;;;;;;-0.99;98.45;100051.77;1808068;79;21146;-53
2021/01/14 01:00:22;;;;;;;50.52;21.42;;;;;;;-0.97;98.38;100056.59;1808147;79;21258;-52
2021/01/14 01:02:52;;;;;;;49.03;21.82;;;;;;;-0.94;98.40;100054.37;1808052;79;21166;-51
2021/01/14 01:05:20;;;;;;;48.68;21.12;;;;;;;-0.92;98.33;100055.26;1808100;79;21111;-53
2021/01/14 01:08:00;;;;;;;53.50;21.05;;;;;;;-0.88;98.39;100065.80;1760371;81;21114;-52
2021/01/14 01:10:26;;;;;;;53.42;22.85;;;;;;;-0.83;98.37;100059.66;1807866;79;21118;-52
2021/01/14 01:12:56;;;;;;;47.88;20.62;;;;;;;-0.79;98.30;100058.77;1760363;81;21375;-52
2021/01/14 01:15:25;;;;;;;45.28;20.95;;;;;;;-0.76;98.29;100053.53;1808089;79;21535;-52
2021/01/14 01:17:52;;;;;;;49.77;22.40;;;;;;;-0.72;98.21;100059.23;1760544;81;21177;-52
2021/01/14 01:20:22;;;;;;;47.55;20.88;;;;;;;-0.69;98.03;100057.91;1808199;79;21517;-52
2021/01/14 01:22:57;;;;;;;47.80;20.92;;;;;;;-0.68;97.90;100062.72;1808130;79;21645;-52
2021/01/14 01:25:25;;;;;;;49.65;21.93;;;;;;;-0.69;97.72;100060.55;1760430;81;21783;-53
2021/01/14 01:27:52;;;;;;;52.30;21.25;;;;;;;-0.66;97.70;100057.91;1808034;79;21216;-52
2021/01/14 01:30:20;;;;;;;55.12;21.85;;;;;;;-0.62;97.68;100057.03;1760417;81;21070;-52
2021/01/14 01:32:50;;;;;;;51.50;20.43;;;;;;;-0.58;97.65;100054.83;1808154;79;21090;-53
2021/01/14 01:35:18;;;;;;;51.60;22.07;;;;;;;-0.54;97.47;100053.53;1808051;79;21031;-53
2021/01/14 01:37:46;;;;;;;51.08;21.82;;;;;;;-0.51;97.40;100054.39;1779454;80;21392;-53
2021/01/14 01:40:14;;;;;;;49.13;20.02;;;;;;;-0.49;97.22;100060.98;1827783;78;21123;-53
2021/01/14 01:42:42;;;;;;;45.80;19.87;;;;;;;-0.48;97.09;100064.05;1827912;78;21158;-53
2021/01/14 01:45:11;;;;;;;47.95;20.82;;;;;;;-0.47;97.01;100061.86;1795226;80;21071;-53
2021/01/14 01:47:40;;;;;;;51.37;20.82;;;;;;;-0.46;96.83;100064.93;1827923;78;21188;-54
2021/01/14 01:50:09;;;;;;;47.73;21.17;;;;;;;-0.45;96.70;100066.23;1828111;78;21191;-53
2021/01/14 01:52:36;;;;;;;47.85;20.65;;;;;;;-0.45;96.53;100064.05;1827938;78;21125;-53
2021/01/14 01:55:05;;;;;;;45.30;20.27;;;;;;;-0.46;96.39;100060.98;1828037;78;21114;-53
2021/01/14 01:57:33;;;;;;;49.67;21.10;;;;;;;-0.48;96.25;100064.91;1828062;78;21149;-53
2021/01/14 02:00:01;;;;;;;48.50;20.77;;;;;;;-0.51;96.08;100064.92;1828152;78;21123;-53
2021/01/14 02:02:30;;;;;;;53.00;20.62;;;;;;;-0.52;96.02;100059.67;1828045;78;22104;-53
2021/01/14 02:04:58;;;;;;;49.60;20.25;;;;;;;-0.52;96.01;100060.53;1828030;78;21046;-52
2021/01/14 02:07:51;;;;;;;50.03;20.55;;;;;;;-0.51;95.94;100058.80;1828021;78;21132;-53
2021/01/14 02:10:53;;;;;;;42.95;18.40;;;;;;;-0.51;95.88;100061.43;1828050;78;21077;-52
2021/01/14 02:13:32;;;;;;;47.38;19.67;;;;;;;-0.51;95.78;100050.89;1828097;78;21038;-53
2021/01/14 02:16:01;;;;;;;46.10;19.82;;;;;;;-0.52;95.67;100050.45;1828064;78;21684;-52
2021/01/14 02:18:29;;;;;;;41.73;18.73;;;;;;;-0.53;95.58;100050.02;1828060;78;21570;-52
2021/01/14 02:21:00;;;;;;;45.70;19.15;;;;;;;-0.54;95.50;100052.22;1827946;78;21137;-53
2021/01/14 02:24:05;;;;;;;41.75;18.52;;;;;;;-0.56;95.31;100046.05;1828037;78;21111;-52
2021/01/14 02:26:34;;;;;;;50.43;21.40;;;;;;;-0.60;95.13;100046.51;1828158;78;26565;-53
2021/01/14 02:29:02;;;;;;;58.50;23.15;;;;;;;-0.64;94.97;100042.98;1827979;78;21186;-53
2021/01/14 02:31:29;;;;;;;74.67;26.52;;;;;;;-0.67;94.92;100041.67;1828167;78;21062;-53
2021/01/14 02:33:57;;;;;;;93.65;32.73;;;;;;;-0.70;94.81;100040.36;1827958;78;21058;-52
2021/01/14 02:36:27;;;;;;;113.22;34.85;;;;;;;-0.73;94.73;100039.05;1828120;78;21122;-53
2021/01/14 02:38:54;;;;;;;75.87;28.57;;;;;;;-0.76;94.66;100035.97;1795434;80;21117;-53
2021/01/14 02:41:22;;;;;;;57.20;22.33;;;;;;;-0.78;94.57;100040.36;1795540;80;21766;-51
2021/01/14 02:43:50;;;;;;;47.70;20.25;;;;;;;-0.81;94.44;100039.47;1762262;81;21085;-53
2021/01/14 02:46:19;;;;;;;50.50;19.12;;;;;;;-0.83;94.42;100045.18;1756751;79;21085;-52
2021/01/14 02:49:01;;;;;;;45.65;19.52;;;;;;;-0.85;94.27;100041.67;1752986;81;21128;-53
2021/01/14 02:51:42;;;;;;;43.50;18.92;;;;;;;-0.89;94.15;100040.78;1753123;81;21085;-53
2021/01/14 02:54:10;;;;;;;44.67;18.82;;;;;;;-0.93;94.12;100041.23;1753090;81;21370;-53
2021/01/14 02:56:38;;;;;;;41.05;17.48;;;;;;;-0.94;94.12;100043.44;1752881;81;21128;-53
2021/01/14 02:59:06;;;;;;;39.47;17.87;;;;;;;-0.94;94.05;100048.69;1753046;81;21199;-53
2021/01/14 03:01:34;;;;;;;42.58;17.77;;;;;;;-0.95;93.94;100049.57;1753013;81;21588;-54
2021/01/14 03:04:02;;;;;;;39.80;16.73;;;;;;;-0.96;93.90;100051.77;1752989;81;21078;-53
2021/01/14 03:06:29;;;;;;;38.70;16.87;;;;;;;-0.96;93.86;100050.87;1753043;81;21513;-53
2021/01/14 03:08:57;;;;;;;34.23;16.07;;;;;;;-0.97;93.74;100057.91;1752907;81;21049;-53
2021/01/14 03:11:31;;;;;;;38.80;17.73;;;;;;;-0.98;93.68;100054.84;1752969;81;21112;-54
2021/01/14 03:13:59;;;;;;;42.40;17.10;;;;;;;-0.99;93.66;100053.08;1753093;81;28606;-54
2021/01/14 03:16:27;;;;;;;36.17;17.13;;;;;;;-1.01;93.55;100051.75;1753002;81;21129;-53
2021/01/14 03:18:54;;;;;;;35.73;16.25;;;;;;;-1.01;93.47;100048.23;1752950;81;21450;-53
2021/01/14 03:21:23;;;;;;;35.15;15.88;;;;;;;-1.01;93.42;100048.23;1752967;81;21077;-54
2021/01/14 03:23:51;;;;;;;35.75;17.20;;;;;;;-1.02;93.31;100052.62;1752942;81;20904;-54
2021/01/14 03:26:19;;;;;;;41.20;17.57;;;;;;;-1.03;93.24;100047.35;1752986;81;21046;-53
2021/01/14 03:28:47;;;;;;;37.15;16.75;;;;;;;-1.05;93.17;100050.00;1753117;81;21212;-53
2021/01/14 03:31:16;;;;;;;39.00;16.90;;;;;;;-1.04;93.12;100052.17;1753110;81;21368;-54
2021/01/14 03:33:45;;;;;;;37.00;16.75;;;;;;;-1.04;93.01;100062.70;1752905;81;21576;-54
2021/01/14 03:36:17;;;;;;;40.10;17.65;;;;;;;-1.07;92.86;100053.49;1753032;81;21632;-53
2021/01/14 03:38:45;;;;;;;43.20;18.15;;;;;;;-1.09;92.78;100064.45;1782200;80;21904;-53
2021/01/14 03:41:15;;;;;;;41.58;18.30;;;;;;;-1.12;92.71;100057.87;1784008;79;21141;-53
2021/01/14 03:43:42;;;;;;;40.78;17.35;;;;;;;-1.14;92.62;100059.62;1783964;80;21240;-53
2021/01/14 03:46:16;;;;;;;39.78;16.87;;;;;;;-1.16;92.58;100068.81;1811078;78;21068;-53
2021/01/14 03:48:45;;;;;;;38.53;18.00;;;;;;;-1.21;92.41;100064.88;1822029;78;21171;-53
2021/01/14 03:51:22;;;;;;;43.23;17.60;;;;;;;-1.24;92.42;100066.16;1821933;78;21643;-53
2021/01/14 03:53:51;;;;;;;40.13;16.90;;;;;;;-1.26;92.42;100063.97;1821964;78;21040;-53
2021/01/14 03:56:19;;;;;;;39.30;17.30;;;;;;;-1.28;92.36;100063.55;1821957;78;22114;-53
2021/01/14 03:58:47;;;;;;;37.38;17.57;;;;;;;-1.32;92.28;100067.91;1821867;78;21127;-53
2021/01/14 04:01:15;;;;;;;36.87;16.53;;;;;;;-1.35;92.26;100073.16;1821924;78;21135;-53
2021/01/14 04:03:43;;;;;;;41.40;17.15;;;;;;;-1.38;92.18;100067.45;1821815;78;21151;-53
2021/01/14 04:06:11;;;;;;;41.27;17.13;;;;;;;-1.38;92.18;100073.16;1821868;78;21052;-53
2021/01/14 04:08:39;;;;;;;36.38;16.05;;;;;;;-1.40;92.17;100076.22;1816649;79;21409;-53
2021/01/14 04:11:09;;;;;;;40.20;16.57;;;;;;;-1.43;92.05;100065.25;1793247;80;21104;-53
2021/01/14 04:13:38;;;;;;;39.58;17.12;;;;;;;-1.46;91.99;100077.08;1821817;78;21231;-54
2021/01/14 04:16:13;;;;;;;38.73;16.70;;;;;;;-1.50;91.93;100070.91;1821939;78;20983;-54
2021/01/14 04:18:40;;;;;;;38.53;16.10;;;;;;;-1.53;91.89;100072.67;1821904;78;21470;-53
2021/01/14 04:21:08;;;;;;;43.75;17.27;;;;;;;-1.57;91.84;100073.09;1821878;78;21485;-53
2021/01/14 04:23:37;;;;;;;41.65;16.35;;;;;;;-1.62;91.81;100065.62;1821720;78;21028;-53
2021/01/14 04:26:05;;;;;;;35.13;15.83;;;;;;;-1.66;91.75;100071.72;1821869;78;21126;-53
2021/01/14 04:28:33;;;;;;;44.50;17.57;;;;;;;-1.71;91.68;100072.14;1821793;78;21154;-53
2021/01/14 04:31:01;;;;;;;45.33;17.40;;;;;;;-1.77;91.68;100066.00;1821905;78;21039;-54
2021/01/14 04:33:28;;;;;;;42.67;16.60;;;;;;;-1.81;91.68;100057.66;1821906;78;21189;-53
2021/01/14 04:35:59;;;;;;;46.13;17.07;;;;;;;-1.86;91.65;100058.08;1821776;78;21129;-54
2021/01/14 04:38:28;;;;;;;42.87;17.20;;;;;;;-1.89;91.60;100068.55;1792418;78;21169;-53
2021/01/14 04:41:03;;;;;;;43.45;16.35;;;;;;;-1.93;91.64;100073.36;1771253;81;21618;-53
2021/01/14 04:43:32;;;;;;;39.23;16.42;;;;;;;-1.98;91.74;100068.09;1754825;81;21049;-54
2021/01/14 04:46:05;;;;;;;37.43;15.67;;;;;;;-2.01;91.75;100075.94;1772924;80;21498;-53
2021/01/14 04:48:35;;;;;;;36.87;15.60;;;;;;;-2.06;91.80;100071.98;1760555;81;21188;-53
2021/01/14 04:51:16;;;;;;;42.33;16.57;;;;;;;-2.10;91.80;100075.47;1774572;80;21173;-54
2021/01/14 04:53:46;;;;;;;42.53;15.60;;;;;;;-2.13;91.86;100066.23;1760396;81;21107;-54
2021/01/14 04:56:15;;;;;;;32.93;14.23;;;;;;;-2.17;91.89;100062.73;1774603;80;21146;-53
2021/01/14 04:58:48;;;;;;;35.00;15.17;;;;;;;-2.18;92.01;100064.91;1760529;81;21466;-53
2021/01/14 05:01:21;;;;;;;31.93;14.73;;;;;;;-2.19;92.17;100064.47;1749821;80;21146;-54
2021/01/14 05:03:50;;;;;;;34.33;14.67;;;;;;;-2.19;92.27;100060.95;1760407;81;21509;-54
2021/01/14 05:06:21;;;;;;;31.40;14.03;;;;;;;-2.18;92.38;100065.34;1774581;80;21060;-54
2021/01/14 05:08:50;;;;;;;33.60;14.83;;;;;;;-2.16;92.46;100067.53;1760441;81;21042;-54
2021/01/14 05:11:18;;;;;;;33.23;14.67;;;;;;;-2.15;92.45;100070.60;1774581;80;21343;-54
2021/01/14 05:13:46;;;;;;;31.30;13.60;;;;;;;-2.16;92.42;100069.74;1760410;81;21578;-54
2021/01/14 05:16:14;;;;;;;29.90;13.77;;;;;;;-2.14;92.41;100067.55;1774584;80;21154;-53
2021/01/14 05:18:41;;;;;;;30.27;13.80;;;;;;;-2.13;92.43;100062.30;1760572;81;21228;-54
2021/01/14 05:21:08;;;;;;;31.20;14.10;;;;;;;-2.12;92.44;100064.05;1774633;80;21170;-52
2021/01/14 05:23:36;;;;;;;29.33;13.27;;;;;;;-2.10;92.45;100063.66;1760526;81;21549;-54
2021/01/14 05:26:04;;;;;;;29.23;13.60;;;;;;;-2.09;92.44;100069.35;1774665;80;21135;-54
2021/01/14 05:28:33;;;;;;;26.13;11.97;;;;;;;-2.06;92.46;100068.05;1760512;81;21156;-54
2021/01/14 05:31:16;;;;;;;28.00;12.87;;;;;;;-2.05;92.47;100066.28;1774687;80;21122;-54
2021/01/14 05:33:45;;;;;;;25.83;11.87;;;;;;;-2.04;92.48;100068.93;1758959;81;21451;-54
2021/01/14 05:36:13;;;;;;;29.03;12.37;;;;;;;-2.02;92.50;100069.81;1748746;80;21695;-54
2021/01/14 05:38:40;;;;;;;25.67;11.70;;;;;;;-1.99;92.44;100075.53;1763714;81;21134;-54
2021/01/14 05:41:18;;;;;;;29.43;12.23;;;;;;;-1.98;92.43;100076.40;1732389;80;21136;-54
2021/01/14 05:43:52;;;;;;;25.67;11.93;;;;;;;-1.98;92.43;100084.28;1758536;80;21074;-54
2021/01/14 05:46:22;;;;;;;26.63;12.60;;;;;;;-1.97;92.43;100076.84;1809303;78;21591;-54
2021/01/14 05:48:51;;;;;;;30.30;13.33;;;;;;;-1.97;92.40;100075.53;1788032;80;22181;-54
2021/01/14 05:51:21;;;;;;;33.57;14.93;;;;;;;-1.98;92.37;100068.52;1822086;78;21567;-53
2021/01/14 05:54:00;;;;;;;28.60;13.17;;;;;;;-1.96;92.34;100075.97;1787899;80;21077;-54
2021/01/14 05:56:49;;;;;;;29.85;13.05;;;;;;;-1.96;92.26;100076.86;1822030;78;21069;-54
2021/01/14 05:59:19;;;;;;;25.70;12.17;;;;;;;-1.95;92.21;100084.29;1788106;80;21207;-53
2021/01/14 06:01:59;;;;;;;31.73;13.30;;;;;;;-1.94;92.16;100089.98;1819558;78;22575;-55
2021/01/14 06:04:29;;;;;;;33.07;13.80;;;;;;;-1.93;92.11;100083.45;1787992;80;21536;-55
2021/01/14 06:07:02;;;;;;;31.60;12.93;;;;;;;-1.91;92.05;100083.44;1821931;78;21110;-55
2021/01/14 06:09:27;;;;;;;28.32;13.13;;;;;;;-1.89;91.92;100085.63;1821890;78;21187;-55
2021/01/14 06:12:12;;;;;;;33.25;13.40;;;;;;;-1.91;91.84;100080.38;1821968;78;21101;-55
2021/01/14 06:14:40;;;;;;;35.50;13.60;;;;;;;-1.89;91.72;100090.89;1822194;78;21375;-54
2021/01/14 06:17:10;;;;;;;36.30;15.53;;;;;;;-1.90;91.57;100087.81;1821952;78;21131;-54
2021/01/14 06:19:38;;;;;;;37.90;14.47;;;;;;;-1.91;91.50;100084.75;1825128;78;21112;-54
2021/01/14 06:22:06;;;;;;;40.05;15.90;;;;;;;-1.92;91.38;100089.56;1825116;78;21108;-54
2021/01/14 06:24:37;;;;;;;33.88;14.13;;;;;;;-1.92;91.43;100087.83;1821925;78;21120;-54
2021/01/14 06:27:09;;;;;;;35.00;14.10;;;;;;;-1.89;91.44;100093.52;1822075;78;21611;-54
2021/01/14 06:29:42;;;;;;;39.37;14.97;;;;;;;-1.88;91.47;100093.53;1821882;78;21060;-54
2021/01/14 06:32:15;;;;;;;31.63;13.67;;;;;;;-1.84;91.47;100091.81;1822139;78;21765;-55
2021/01/14 06:34:48;;;;;;;34.67;14.67;;;;;;;-1.80;91.40;100096.62;1821861;78;21163;-54
2021/01/14 06:37:20;;;;;;;32.38;14.65;;;;;;;-1.80;91.25;100099.25;1807895;78;21519;-54
2021/01/14 06:39:52;;;;;;;30.47;13.10;;;;;;;-1.81;91.14;100099.70;1778535;80;21198;-53
2021/01/14 06:42:29;;;;;;;29.50;14.33;;;;;;;-1.81;90.93;100102.75;1770290;81;21217;-53
2021/01/14 06:45:08;;;;;;;31.60;13.70;;;;;;;-1.86;90.79;100096.19;1770274;81;21117;-54
2021/01/14 06:47:46;;;;;;;33.33;14.57;;;;;;;-1.88;90.82;100103.15;1773879;80;21200;-53
2021/01/14 06:50:24;;;;;;;32.40;14.47;;;;;;;-1.90;90.90;100105.79;1774475;80;21148;-53
2021/01/14 06:53:01;;;;;;;31.90;13.53;;;;;;;-1.89;90.95;100105.34;1788398;79;21201;-53
2021/01/14 06:55:34;;;;;;;30.77;13.90;;;;;;;-1.91;91.00;100105.77;1789276;80;20928;-53
2021/01/14 06:58:10;;;;;;;28.27;12.87;;;;;;;-1.90;91.20;100107.52;1793836;80;21063;-54
2021/01/14 07:00:48;;;;;;;27.17;12.97;;;;;;;-1.89;91.24;100110.59;1813257;78;21092;-53
2021/01/14 07:03:23;;;;;;;27.65;13.08;;;;;;;-1.87;91.34;100111.06;1789338;80;21149;-53
2021/01/14 07:05:58;;;;;;;;;;;;;;;-1.84;91.43;100114.16;1791912;80;21363;-53
2021/01/14 07:08:39;;;;;;;35.80;13.87;;;;;;;-1.81;91.45;100118.11;1793835;80;20214;-53
2021/01/14 07:11:17;;;;;;;33.83;14.67;;;;;;;-1.82;91.48;100115.03;1789257;80;21166;-53
2021/01/14 07:13:52;;;;;;;33.10;14.13;;;;;;;-1.81;91.53;100112.85;1790143;79;21114;-55
2021/01/14 07:16:21;;;;;;;27.97;13.43;;;;;;;-1.79;91.56;100116.36;1763003;80;21550;-54
2021/01/14 07:18:52;;;;;;;33.17;14.13;;;;;;;-1.78;91.51;100128.63;1762220;80;22409;-54
2021/01/14 07:21:40;;;;;;;31.55;14.35;;;;;;;-1.77;91.50;100123.81;1790666;80;21057;-55
2021/01/14 07:24:24;;;;;;;39.57;16.17;;;;;;;-1.74;91.48;100119.88;1785480;79;21078;-54
2021/01/14 07:26:59;;;;;;;35.23;16.27;;;;;;;-1.66;91.54;100119.03;1789351;80;21550;-54
2021/01/14 07:29:30;;;;;;;32.95;14.58;;;;;;;-1.60;91.56;100116.45;1793941;79;21057;-54
2021/01/14 07:31:59;;;;;;;39.42;16.52;;;;;;;-1.50;91.61;100116.93;1794083;79;21317;-54
2021/01/14 07:34:43;;;;;;;50.85;18.60;;;;;;;-1.40;91.51;100125.73;1789328;80;21078;-54
2021/01/14 07:37:18;;;;;;;48.38;19.10;;;;;;;-1.34;91.45;100123.58;1789492;80;21504;-53
2021/01/14 07:39:57;;;;;;;47.55;18.90;;;;;;;-1.25;91.43;100126.22;1755831;80;21186;-53
2021/01/14 07:42:33;;;;;;;59.43;21.17;;;;;;;-1.18;91.30;100134.59;1779195;80;21161;-53
2021/01/14 07:45:05;;;;;;;57.03;21.30;;;;;;;-1.11;91.14;100136.78;1779303;80;21202;-53
2021/01/14 07:47:35;;;;;;;49.50;19.05;;;;;;;-1.06;91.00;100132.86;1778733;80;21166;-53
2021/01/14 07:50:25;;;;;;;52.73;20.60;;;;;;;-1.02;90.89;100132.89;1780969;80;21075;-54
2021/01/14 07:52:56;;;;;;;38.80;17.83;;;;;;;-0.96;90.72;100133.34;1780849;80;21182;-54
2021/01/14 07:55:31;;;;;;;35.58;16.25;;;;;;;-0.93;90.52;100125.45;1780991;80;21558;-53
2021/01/14 07:58:22;;;;;;;37.15;17.67;;;;;;;-0.91;90.35;100126.33;1781181;80;22259;-54
2021/01/14 08:01:11;;;;;;;47.38;18.95;;;;;;;-0.87;90.17;100135.98;1781536;80;21058;-54
2021/01/14 08:03:40;;;;;;;42.25;19.32;;;;;;;-0.81;90.03;100136.86;1820624;78;21064;-54
2021/01/14 08:06:30;;;;;;;40.12;17.57;;;;;;;-0.76;89.84;100136.45;1784471;80;21102;-54
2021/01/14 08:09:06;;;;;;;40.23;18.32;;;;;;;-0.71;89.68;100143.92;1772737;79;21093;-53
2021/01/14 08:11:44;;;;;;;52.23;19.05;;;;;;;-0.67;89.43;100143.05;1770234;81;22667;-54
2021/01/14 08:14:23;;;;;;;53.55;20.02;;;;;;;-0.62;89.29;100141.28;1775656;79;21090;-54
2021/01/14 08:16:56;;;;;;;45.08;17.90;;;;;;;-0.55;89.23;100142.17;1754337;81;21157;-53
2021/01/14 08:19:33;;;;;;;52.40;19.98;;;;;;;-0.44;89.12;100139.55;1770424;81;21157;-53
2021/01/14 08:22:08;;;;;;;62.00;21.77;;;;;;;-0.35;88.86;100132.09;1770511;81;21062;-53
2021/01/14 08:24:53;;;;;;;56.98;21.80;;;;;;;-0.24;88.61;100136.04;1770143;81;21398;-54
2021/01/14 08:27:36;;;;;;;;;;;;;;;-0.18;88.18;100128.13;1773154;81;21376;-53
2021/01/14 08:30:15;;;;;;;43.42;18.30;;;;;;;-0.11;88.00;100128.58;1770677;81;20240;-54
2021/01/14 08:32:48;;;;;;;46.25;19.62;;;;;;;-0.02;87.80;100123.70;1770402;81;21071;-55
2021/01/14 08:35:30;;;;;;;38.92;17.25;;;;;;;0.08;87.46;100125.88;1770508;81;26744;-56
2021/01/14 08:38:10;;;;;;;46.60;18.45;;;;;;;0.16;87.19;100120.17;1789974;79;21206;-55
2021/01/14 08:40:41;;;;;;;41.75;17.67;;;;;;;0.24;86.77;100121.48;1802027;79;21200;-56
2021/01/14 08:43:14;;;;;;;41.55;17.92;;;;;;;0.31;86.51;100120.57;1789517;80;21114;-55
2021/01/14 08:45:52;;;;;;;39.92;16.97;;;;;;;0.39;86.48;100119.23;1810289;79;21070;-56
2021/01/14 08:48:29;;;;;;;42.43;17.98;;;;;;;0.47;86.35;100125.34;1789490;80;21065;-56
2021/01/14 08:51:02;;;;;;;48.15;19.00;;;;;;;0.55;86.08;100122.26;1810362;79;21374;-55
2021/01/14 08:53:36;;;;;;;41.08;17.52;;;;;;;0.62;85.77;100123.55;1810324;79;21059;-55
2021/01/14 08:56:12;;;;;;;44.00;17.40;;;;;;;0.66;85.50;100120.89;1810382;79;21586;-55
2021/01/14 08:58:46;;;;;;;42.40;18.40;;;;;;;0.75;85.42;100119.95;1810357;79;21063;-56
2021/01/14 09:01:22;;;;;;;39.10;17.52;;;;;;;0.83;85.14;100118.17;1810640;79;21122;-56
2021/01/14 09:03:53;;;;;;;36.25;16.87;;;;;;;0.89;84.76;100121.66;1789773;80;22122;-56
2021/01/14 09:06:40;;;;;;;37.85;17.27;;;;;;;0.92;84.48;100116.35;1810481;79;21050;-54
2021/01/14 09:09:10;;;;;;;37.85;16.77;;;;;;;0.94;84.05;100115.90;1789591;80;21131;-55
2021/01/14 09:11:39;;;;;;;36.98;16.32;;;;;;;0.94;83.90;100115.47;1810499;79;21063;-55
2021/01/14 09:14:11;;;;;;;34.75;16.17;;;;;;;0.97;83.91;100123.37;1789688;80;21134;-54
2021/01/14 09:16:42;;;;;;;34.43;16.65;;;;;;;0.98;83.69;100112.35;1810520;79;21547;-55
2021/01/14 09:19:24;;;;;;;35.48;16.97;;;;;;;1.01;83.63;100109.72;1768442;80;21162;-54
2021/01/14 09:21:50;;;;;;;46.85;18.80;;;;;;;1.03;83.45;100108.37;1780967;80;21063;-54
2021/01/14 09:24:18;;;;;;;44.53;19.98;;;;;;;1.05;83.25;100105.27;1780782;80;21122;-54
2021/01/14 09:26:50;;;;;;;40.85;18.10;;;;;;;1.05;83.29;100101.31;1780912;80;21134;-54
2021/01/14 09:29:19;;;;;;;37.58;16.15;;;;;;;1.07;83.23;100101.75;1780944;80;21199;-54
2021/01/14 09:31:47;;;;;;;30.77;15.58;;;;;;;1.11;83.28;100106.13;1780719;80;21196;-54
2021/01/14 09:34:14;;;;;;;37.13;16.25;;;;;;;1.17;83.09;100109.17;1796080;78;21133;-54
2021/01/14 09:36:42;;;;;;;39.03;16.65;;;;;;;1.23;82.96;100112.22;1779675;80;21138;-54
2021/01/14 09:39:16;;;;;;;32.15;16.73;;;;;;;1.25;82.76;100106.48;1792521;80;21109;-54
2021/01/14 09:41:44;;;;;;;29.82;14.07;;;;;;;1.27;82.71;100088.86;1792704;80;21203;-55
2021/01/14 09:44:14;;;;;;;35.15;16.62;;;;;;;1.29;82.42;100092.36;1792422;80;21066;-54
2021/01/14 09:46:46;;;;;;;34.00;16.97;;;;;;;1.29;82.19;100092.36;1791023;79;21066;-54
2021/01/14 09:49:16;;;;;;;35.78;17.07;;;;;;;1.33;82.32;100090.59;1800963;79;21227;-54
2021/01/14 09:51:45;;;;;;;34.55;16.55;;;;;;;1.36;82.27;100082.17;1801330;79;21144;-54
2021/01/14 09:54:13;;;;;;;34.25;15.60;;;;;;;1.40;82.26;100094.46;1801374;79;21235;-54
2021/01/14 09:56:54;;;;;;;30.77;15.72;;;;;;;1.41;82.17;100085.64;1801235;79;21169;-54
2021/01/14 09:59:34;;;;;;;29.82;15.48;;;;;;;1.42;82.02;100082.11;1801535;79;21151;-54
2021/01/14 10:02:16;;;;;;;34.15;16.40;;;;;;;1.37;81.89;100077.32;1801830;79;21045;-53
2021/01/14 10:05:03;;;;;;;35.30;17.05;;;;;;;1.33;81.94;100087.95;1801988;79;21172;-54
2021/01/14 10:07:34;;;;;;;38.30;18.15;;;;;;;1.31;82.25;100087.95;1794745;79;21333;-54
2021/01/14 10:10:08;;;;;;;37.78;17.15;;;;;;;1.33;82.37;100080.02;1801997;79;21148;-53
2021/01/14 10:12:35;;;;;;;45.65;18.37;;;;;;;1.32;82.40;100083.09;1771508;79;21112;-54
2021/01/14 10:15:13;;;;;;;44.80;19.20;;;;;;;1.33;82.44;100087.95;1802076;79;21029;-53
2021/01/14 10:17:41;;;;;;;41.25;17.90;;;;;;;1.35;82.53;100088.80;1743134;81;21065;-53
2021/01/14 10:20:12;;;;;;;48.08;18.57;;;;;;;1.38;82.70;100076.43;1770351;81;21202;-53
2021/01/14 10:22:52;;;;;;;44.80;17.57;;;;;;;1.40;82.75;100070.69;1770325;81;21093;-54
2021/01/14 10:25:21;;;;;;;61.65;20.97;;;;;;;1.43;82.83;100061.41;1770476;81;21566;-54
2021/01/14 10:28:00;;;;;;;54.30;21.12;;;;;;;1.49;82.77;100053.89;1785711;79;21141;-53
2021/01/14 10:30:30;;;;;;;53.48;20.17;;;;;;;1.53;82.66;100057.39;1788645;80;21050;-53
2021/01/14 10:33:04;;;;;;;62.65;20.60;;;;;;;1.56;82.62;100061.32;1772110;81;21202;-54
2021/01/14 10:35:33;;;;;;;37.48;17.42;;;;;;;1.60;82.60;100055.57;1791410;80;21089;-54
2021/01/14 10:38:08;;;;;;;36.48;16.07;;;;;;;1.62;82.36;100050.69;1795717;79;21083;-54
2021/01/14 10:40:48;;;;;;;40.78;18.25;;;;;;;1.61;82.12;100050.25;1789402;80;21130;-54
2021/01/14 10:43:34;;;;;;;38.45;17.95;;;;;;;1.62;82.04;100048.04;1806837;79;21122;-55
2021/01/14 10:46:04;;;;;;;35.52;17.65;;;;;;;1.60;82.01;100042.36;1800612;79;21199;-54
2021/01/14 10:48:38;;;;;;;35.50;17.50;;;;;;;1.54;81.85;100044.14;1802387;77;21086;-54
2021/01/14 10:51:07;;;;;;;39.00;16.20;;;;;;;1.49;81.86;100039.36;1806206;79;20986;-54
2021/01/14 10:53:40;;;;;;;33.42;17.27;;;;;;;1.46;82.07;100041.17;1806027;79;21117;-54
2021/01/14 10:56:11;;;;;;;34.08;17.00;;;;;;;1.42;82.30;100033.25;1806173;79;21129;-55
2021/01/14 10:58:40;;;;;;;37.93;17.87;;;;;;;1.42;82.51;100035.89;1806128;79;21375;-54
2021/01/14 11:01:20;;;;;;;40.58;19.70;;;;;;;1.41;82.64;100032.81;1806103;79;21534;-56
2021/01/14 11:03:50;;;;;;;37.67;17.87;;;;;;;1.38;82.79;100028.88;1806301;79;21561;-54
2021/01/14 11:06:31;;;;;;;35.05;17.50;;;;;;;1.37;83.02;100017.89;1806087;79;21561;-54
2021/01/14 11:09:06;;;;;;;36.55;17.92;;;;;;;1.36;83.19;100017.45;1806331;79;21469;-54
2021/01/14 11:11:36;;;;;;;40.52;18.62;;;;;;;1.35;83.41;100013.53;1806130;79;22231;-55
2021/01/14 11:14:05;;;;;;;35.68;16.35;;;;;;;1.33;83.52;100014.84;1806092;79;21130;-55
2021/01/14 11:16:33;;;;;;;34.10;16.15;;;;;;;1.30;83.62;100006.96;1805324;79;21172;-54
2021/01/14 11:19:03;;;;;;;35.58;18.02;;;;;;;1.29;83.72;100015.31;1806114;79;21050;-55
2021/01/14 11:21:34;;;;;;;38.02;17.77;;;;;;;1.30;83.83;100017.52;1806012;79;21073;-54
2021/01/14 11:24:03;;;;;;;34.18;16.32;;;;;;;1.31;83.90;100015.73;1806128;79;21518;-54
2021/01/14 11:26:31;;;;;;;35.35;17.20;;;;;;;1.31;83.77;100016.63;1806218;79;21066;-54
2021/01/14 11:28:58;;;;;;;33.70;17.05;;;;;;;1.29;83.86;100018.41;1806111;79;21184;-53
2021/01/14 11:31:26;;;;;;;28.52;15.08;;;;;;;1.32;84.08;100026.30;1806213;79;21442;-54
2021/01/14 11:33:55;;;;;;;33.45;16.25;;;;;;;1.31;83.90;100019.27;1806168;79;21200;-54